Main page
METAR-TAF:

METAR-TAF

Airports :

Cairo International Airport

Cairo, Egypt

latitude: 30-08N, longitude: 031-24E, elevation: 64 m

Current weather observation

The report was made 17 minutes ago, at 00:00 UTC
Wind 11 kt from the West/Northwest
Temperature 12°C
Humidity 58%
Pressure 1019 hPa
Visibility 10 km or more
no clouds below 1500 m and no cumulonimbus

METAR: HECA 110000Z 29011KT CAVOK 12/04 Q1019 NOSIG

Time: 02:17 (00:17 UTC)

Forecast

The report was made 1 hour and 17 minutes ago, at 23:00 UTC
Forecast valid from 11 at 00 UTC to 12 at 06 UTC
Wind 10 kt from the West/Northwest
Visibility 10 km or more
no clouds below 1500 m and no cumulonimbus

TAF: HECA 102300Z 1100/1206 29010KT CAVOK

Weather observations and forecasts of more than 4000 airports (METAR and TAF reports).

The available stations are represented by yellow and red dots on the map.

Hover mouse over dot to see the name of the station.

Then click to see weather observations and forecasts.

To change the map : click on the green buttons with a black cross to zoom in, on the green button with a dash to zoom out, or on the green arrows for adjacent maps.


METAR-TAF: